Windsor Heights, West Virginia
Current Conditions -  °F | °C
As of 12:53 PM on Thursday 23 Oct 2014 (Local Time) from KHLG Reporting Station
Broken Clouds Broken Clouds  
Wind Chill: 56°   Ceiling: 2900
Heat Index: 56°   Visibility: 10mi
Dew Point: 43°   Wind: 10mph
Humidity: 62%   Direction: 310°NW
Pressure: 30.13"   Gusts: 20mph
Location:  40.19°N, 80.67°W
Report Text: KHLG 231653Z 31009G17KT 10SM BKN029 13/06 A3013 RMK AO2 SLP208 T01330061
Loading
Personal Weather Stations






























Interactive Weather Map
Tropical Storm Tracking
New forecast layout! Learn more

10-Day Weather Forecast

Advertisements
Track Severe Weather on mobile